Time;durP1;ratioP1;P1;durP2;ratioP2;P2;SDS_P1;SDS_P2;PMS_P1;PMS_P2;Temp;Humidity;BMP_temperature;BMP_pressure;BME280_temperature;BME280_humidity;BME280_pressure;Samples;Min_cycle;Max_cycle;Signal;HPM_P1;HPM_P2
2020/12/11 00:00:07;;;;;;;39.23;18.97;;;3.10;91.10;;;;;;4876509;29;20033;-89
2020/12/11 00:02:44;;;;;;;36.63;18.53;;;3.00;91.10;;;;;;4875932;29;20060;-90
2020/12/11 00:05:22;;;;;;;36.17;18.60;;;3.00;91.10;;;;;;4875245;29;20274;-90
2020/12/11 00:07:51;;;;;;;34.90;17.45;;;3.00;91.00;;;;;;4876158;29;20048;-90
2020/12/11 00:10:19;;;;;;;31.10;17.03;;;3.10;91.10;;;;;;4876283;29;20045;-90
2020/12/11 00:12:51;;;;;;;33.10;17.27;;;3.00;91.10;;;;;;4874428;29;20502;-90
2020/12/11 00:15:22;;;;;;;35.53;18.13;;;3.10;91.00;;;;;;4874198;29;20064;-91
2020/12/11 00:18:14;;;;;;;35.63;17.63;;;3.00;91.00;;;;;;4875575;29;20045;-90
2020/12/11 00:21:03;;;;;;;34.97;17.00;;;3.00;91.00;;;;;;4899389;29;20036;-90
2020/12/11 00:23:31;;;;;;;34.40;17.83;;;3.10;90.90;;;;;;4875432;29;20420;-90
2020/12/11 00:26:08;;;;;;;37.00;18.60;;;3.10;90.90;;;;;;4875305;29;20048;-91
2020/12/11 00:28:45;;;;;;;31.00;17.03;;;3.10;90.80;;;;;;4857788;29;20049;-90
2020/12/11 00:31:32;;;;;;;;;;;;;;;;;;;;;
2020/12/11 00:34:22;;;;;;;31.37;16.10;;;3.00;90.80;;;;;;4873858;29;20118;-91
2020/12/11 00:36:49;;;;;;;34.97;17.48;;;3.00;90.90;;;;;;4873154;29;20902;-90
2020/12/11 00:39:46;;;;;;;37.20;17.88;;;2.90;90.80;;;;;;4856722;29;20518;-90
2020/12/11 00:42:22;;;;;;;32.63;16.73;;;2.80;91.10;;;;;;4856670;29;20033;-91
2020/12/11 00:45:03;;;;;;;33.07;17.20;;;2.90;91.50;;;;;;4855751;29;20029;-90
2020/12/11 00:47:35;;;;;;;33.50;16.93;;;2.90;91.10;;;;;;4859818;29;20041;-89
2020/12/11 00:50:05;;;;;;;32.03;16.40;;;3.00;91.10;;;;;;4857412;29;20565;-90
2020/12/11 00:52:31;;;;;;;32.97;16.43;;;3.00;91.10;;;;;;4854892;29;20045;-90
2020/12/11 00:55:08;;;;;;;31.33;17.20;;;3.00;91.10;;;;;;4854316;29;20106;-90
2020/12/11 00:57:39;;;;;;;32.83;16.77;;;3.00;90.80;;;;;;4854903;29;20041;-90
2020/12/11 01:00:17;;;;;;;31.43;16.50;;;3.00;90.90;;;;;;4876593;29;20040;-90
2020/12/11 01:02:50;;;;;;;32.53;17.40;;;2.90;90.90;;;;;;4858032;29;20049;-92
2020/12/11 01:05:43;;;;;;;30.47;16.57;;;2.90;91.00;;;;;;4854211;29;20480;-90
2020/12/11 01:08:13;;;;;;;30.43;16.23;;;3.00;91.10;;;;;;4854646;29;20041;-90
2020/12/11 01:10:41;;;;;;;33.65;17.73;;;3.00;90.90;;;;;;4855295;29;20105;-90
2020/12/11 01:13:09;;;;;;;30.27;15.80;;;3.00;90.90;;;;;;4855013;29;20068;-90
2020/12/11 01:15:42;;;;;;;31.53;16.33;;;3.00;91.00;;;;;;4853242;29;20422;-90
2020/12/11 01:18:37;;;;;;;31.07;16.57;;;3.00;91.00;;;;;;4858114;29;20041;-91
2020/12/11 01:21:26;;;;;;;30.30;15.60;;;3.00;91.00;;;;;;4863782;29;20128;-90
2020/12/11 01:24:09;;;;;;;29.83;15.57;;;3.00;91.00;;;;;;4864255;29;20390;-91
2020/12/11 01:26:43;;;;;;;30.47;16.90;;;3.10;91.00;;;;;;4870120;29;20064;-91
2020/12/11 01:29:12;;;;;;;28.90;15.07;;;3.10;90.80;;;;;;4885738;29;20034;-90
2020/12/11 01:31:45;;;;;;;29.17;15.00;;;3.10;90.70;;;;;;4886242;29;20025;-91
2020/12/11 01:34:11;;;;;;;31.57;16.93;;;3.10;90.60;;;;;;4885273;29;20092;-91
2020/12/11 01:36:40;;;;;;;31.00;15.50;;;3.10;90.50;;;;;;4887034;29;20033;-91
2020/12/11 01:39:06;;;;;;;29.00;15.48;;;3.10;90.50;;;;;;4879033;29;20381;-91
2020/12/11 01:41:41;;;;;;;31.00;15.50;;;3.10;90.60;;;;;;4880290;29;20123;-91
2020/12/11 01:44:30;;;;;;;29.60;14.70;;;3.10;90.50;;;;;;4890146;29;20048;-91
2020/12/11 01:46:57;;;;;;;31.60;15.88;;;3.10;90.50;;;;;;4875530;29;20043;-91
2020/12/11 01:49:29;;;;;;;30.40;15.57;;;3.10;90.40;;;;;;4872900;29;20041;-91
2020/12/11 01:51:58;;;;;;;32.00;15.80;;;3.10;90.30;;;;;;4873695;29;20041;-91
2020/12/11 01:54:33;;;;;;;30.30;15.32;;;3.20;90.20;;;;;;4871536;29;20047;-91
2020/12/11 01:57:29;;;;;;;30.97;15.97;;;3.20;90.10;;;;;;4872963;29;20068;-91
2020/12/11 02:00:05;;;;;;;29.33;15.07;;;3.20;90.10;;;;;;4874273;29;20084;-91
2020/12/11 02:02:39;;;;;;;29.63;15.43;;;3.20;90.00;;;;;;4873153;29;20035;-91
2020/12/11 02:05:11;;;;;;;27.23;15.27;;;3.10;90.10;;;;;;4872054;29;20532;-90
2020/12/11 02:07:48;;;;;;;31.07;14.87;;;3.10;90.10;;;;;;4871476;29;20037;-91
2020/12/11 02:10:19;;;;;;;31.03;16.27;;;3.10;90.00;;;;;;4872286;29;20037;-90
2020/12/11 02:12:47;;;;;;;30.37;15.43;;;3.10;90.10;;;;;;4872563;29;20439;-90
2020/12/11 02:15:18;;;;;;;31.73;16.53;;;3.00;90.20;;;;;;4870730;29;20562;-91
2020/12/11 02:18:16;;;;;;;30.80;16.43;;;3.00;90.10;;;;;;4871250;29;20044;-91
2020/12/11 02:20:52;;;;;;;29.77;15.17;;;3.00;90.10;;;;;;4872341;29;20037;-90
2020/12/11 02:23:30;;;;;;;33.03;16.33;;;3.00;90.20;;;;;;4872125;29;20451;-91
2020/12/11 02:26:01;;;;;;;32.17;16.10;;;2.90;90.10;;;;;;4895736;29;20039;-92
2020/12/11 02:28:40;;;;;;;31.30;16.77;;;2.90;90.30;;;;;;4894102;29;20048;-91
2020/12/11 02:31:05;;;;;;;31.10;16.87;;;2.90;90.20;;;;;;4893969;29;20047;-91
2020/12/11 02:33:36;;;;;;;31.57;15.93;;;2.90;90.50;;;;;;4871156;29;20029;-91
2020/12/11 02:36:15;;;;;;;30.80;15.63;;;2.80;90.40;;;;;;4871496;29;20040;-91
2020/12/11 02:38:47;;;;;;;30.08;15.27;;;2.80;90.50;;;;;;4872075;29;20368;-91
2020/12/11 02:41:27;;;;;;;;;;;;;;;;;;;;;
2020/12/11 02:44:00;;;;;;;30.27;16.10;;;2.80;90.10;;;;;;4888817;29;20568;-91
2020/12/11 02:46:28;;;;;;;33.03;16.00;;;2.80;90.50;;;;;;4871308;29;20371;-92
2020/12/11 02:49:12;;;;;;;33.50;17.50;;;2.90;90.40;;;;;;4872827;29;20494;-91
2020/12/11 02:51:46;;;;;;;33.47;16.63;;;2.90;90.30;;;;;;4871932;29;20025;-91
2020/12/11 02:54:22;;;;;;;31.77;16.37;;;2.90;90.30;;;;;;4870944;29;20052;-91
2020/12/11 02:56:52;;;;;;;32.23;17.17;;;2.90;90.30;;;;;;4871684;29;20029;-91
2020/12/11 02:59:27;;;;;;;32.67;17.37;;;2.80;90.30;;;;;;4871574;29;20490;-90
2020/12/11 03:02:13;;;;;;;32.20;16.83;;;2.80;90.30;;;;;;4871346;29;20502;-92
2020/12/11 03:04:39;;;;;;;33.93;17.53;;;2.80;90.50;;;;;;4869950;29;20049;-91
2020/12/11 03:07:07;;;;;;;33.40;16.43;;;2.80;90.40;;;;;;4871894;29;20080;-92
2020/12/11 03:09:38;;;;;;;34.83;17.47;;;2.80;90.30;;;;;;4872125;29;20553;-91
2020/12/11 03:12:06;;;;;;;34.47;17.77;;;2.80;90.30;;;;;;4872058;29;20116;-92
2020/12/11 03:14:45;;;;;;;32.87;16.90;;;2.90;90.30;;;;;;4871019;29;20036;-91
2020/12/11 03:17:18;;;;;;;;;;;2.90;90.20;;;;;;4872360;29;20060;-91
2020/12/11 03:19:46;;;;;;;32.10;16.33;;;2.90;90.50;;;;;;4874329;29;19951;-91
2020/12/11 03:22:17;;;;;;;35.53;17.77;;;2.90;90.10;;;;;;4897980;29;20513;-92
2020/12/11 03:24:46;;;;;;;32.87;16.30;;;2.90;90.10;;;;;;4873955;29;20032;-91
2020/12/11 03:27:17;;;;;;;35.97;17.45;;;2.90;90.00;;;;;;4875248;29;20084;-91
2020/12/11 03:29:51;;;;;;;34.43;17.23;;;3.00;89.80;;;;;;4875484;29;20108;-91
2020/12/11 03:32:20;;;;;;;32.30;16.60;;;3.00;89.80;;;;;;4875213;29;20028;-91
2020/12/11 03:35:01;;;;;;;36.50;17.85;;;3.00;89.60;;;;;;4876582;29;20033;-91
2020/12/11 03:37:30;;;;;;;35.67;18.40;;;3.00;89.40;;;;;;4874520;29;20061;-91
2020/12/11 03:40:13;;;;;;;32.60;17.23;;;3.00;89.10;;;;;;4875267;29;20033;-90
2020/12/11 03:42:44;;;;;;;36.93;18.27;;;3.00;89.10;;;;;;4875864;29;20029;-91
2020/12/11 03:45:15;;;;;;;34.50;17.57;;;2.90;89.50;;;;;;4898507;29;20032;-91
2020/12/11 03:47:46;;;;;;;35.60;18.07;;;2.90;89.50;;;;;;4875343;29;20406;-91
2020/12/11 03:50:40;;;;;;;33.93;17.90;;;2.90;89.50;;;;;;4875699;29;20031;-91
2020/12/11 03:53:13;;;;;;;33.77;17.43;;;2.90;89.30;;;;;;4876309;29;20478;-91
2020/12/11 03:55:42;;;;;;;34.27;17.93;;;2.90;89.60;;;;;;4874102;29;20036;-91
2020/12/11 03:58:25;;;;;;;34.65;17.90;;;2.80;89.70;;;;;;4874523;29;20034;-91
2020/12/11 04:00:56;;;;;;;33.77;16.83;;;2.80;89.80;;;;;;4874677;29;20044;-91
2020/12/11 04:03:29;;;;;;;35.03;17.67;;;2.80;90.00;;;;;;4874029;29;20048;-90
2020/12/11 04:06:00;;;;;;;33.70;16.93;;;2.70;89.60;;;;;;4874675;29;20461;-91
2020/12/11 04:08:35;;;;;;;34.30;17.03;;;2.70;90.20;;;;;;4874563;29;20041;-91
2020/12/11 04:11:24;;;;;;;34.03;17.47;;;2.70;90.00;;;;;;4873689;29;20032;-91
2020/12/11 04:13:50;;;;;;;;;;;2.80;90.20;;;;;;4897962;29;20111;-90
2020/12/11 04:16:20;;;;;;;32.00;16.13;;;2.80;90.10;;;;;;4874225;29;20728;-91
2020/12/11 04:18:57;;;;;;;31.43;16.93;;;2.80;90.20;;;;;;4874802;29;20414;-91
2020/12/11 04:21:29;;;;;;;31.20;16.37;;;2.80;89.20;;;;;;4874076;29;20390;-90
2020/12/11 04:24:03;;;;;;;32.30;16.13;;;2.90;90.00;;;;;;4874153;29;20032;-91
2020/12/11 04:26:34;;;;;;;32.17;16.33;;;2.80;90.00;;;;;;4874397;29;20359;-91
2020/12/11 04:29:05;;;;;;;32.53;17.13;;;2.80;89.70;;;;;;4874132;29;20045;-89
2020/12/11 04:32:02;;;;;;;33.17;17.27;;;2.80;90.00;;;;;;4873101;29;20163;-90
2020/12/11 04:34:30;;;;;;;29.20;16.17;;;2.80;90.00;;;;;;4897110;29;20028;-91
2020/12/11 04:37:10;;;;;;;30.83;16.87;;;2.70;90.00;;;;;;4873554;29;20035;-91
2020/12/11 04:39:36;;;;;;;33.60;16.43;;;2.70;90.20;;;;;;4873665;29;20068;-91
2020/12/11 04:42:07;;;;;;;33.20;16.90;;;2.80;90.20;;;;;;4873504;29;20487;-90
2020/12/11 04:44:36;;;;;;;33.17;16.47;;;2.80;90.20;;;;;;4896363;29;20526;-89
2020/12/11 04:47:26;;;;;;;35.78;17.17;;;2.80;90.20;;;;;;4873755;29;20037;-90
2020/12/11 04:49:56;;;;;;;33.17;16.23;;;2.80;90.20;;;;;;4873742;29;20047;-91
2020/12/11 04:52:43;;;;;;;34.93;17.67;;;2.80;90.20;;;;;;4873590;29;20032;-91
2020/12/11 04:55:17;;;;;;;34.70;17.73;;;2.90;90.10;;;;;;4872379;29;20401;-91
2020/12/11 04:57:53;;;;;;;31.73;17.20;;;2.90;89.90;;;;;;4878010;29;20033;-90
2020/12/11 05:00:40;;;;;;;41.47;22.77;;;2.90;89.90;;;;;;4873489;29;20059;-90
2020/12/11 05:03:17;;;;;;;35.57;18.80;;;2.80;89.80;;;;;;4875771;29;20043;-91
2020/12/11 05:05:43;;;;;;;34.27;18.17;;;2.90;90.00;;;;;;4896942;29;20481;-90
2020/12/11 05:08:22;;;;;;;31.70;18.00;;;2.90;89.90;;;;;;4874010;29;20036;-90
2020/12/11 05:10:58;;;;;;;33.85;17.90;;;2.90;89.50;;;;;;4874070;29;20029;-90
2020/12/11 05:13:27;;;;;;;32.43;17.13;;;2.90;89.80;;;;;;4872542;29;20033;-90
2020/12/11 05:16:21;;;;;;;31.35;16.88;;;2.90;89.90;;;;;;4872007;29;20450;-90
2020/12/11 05:18:54;;;;;;;33.00;17.17;;;2.90;89.40;;;;;;4873862;29;20039;-90
2020/12/11 05:21:26;;;;;;;29.93;16.13;;;2.90;89.90;;;;;;4874096;29;20080;-90
2020/12/11 05:24:47;;;;;;;34.80;18.27;;;2.90;89.70;;;;;;4872781;29;20119;-90
2020/12/11 05:26:59;;;;;;;32.60;16.63;;;2.90;89.40;;;;;;4884319;29;20060;-90
2020/12/11 05:29:32;;;;;;;32.30;17.63;;;2.90;89.90;;;;;;4873240;29;20047;-90
2020/12/11 05:32:03;;;;;;;30.87;16.27;;;2.90;89.10;;;;;;4873212;29;20025;-90
2020/12/11 05:34:52;;;;;;;36.53;17.80;;;2.80;89.80;;;;;;4873279;29;20083;-90
2020/12/11 05:37:21;;;;;;;35.03;18.27;;;2.90;89.60;;;;;;4873963;29;20032;-90
2020/12/11 05:39:58;;;;;;;33.58;16.60;;;2.90;89.30;;;;;;4873046;29;20036;-90
2020/12/11 05:42:27;;;;;;;35.67;17.93;;;2.80;89.80;;;;;;4882808;29;20041;-91
2020/12/11 05:44:56;;;;;;;34.05;17.23;;;2.80;89.90;;;;;;4881512;29;20517;-91
2020/12/11 05:47:30;;;;;;;35.13;17.10;;;2.90;89.50;;;;;;4878948;29;20044;-90
2020/12/11 05:50:19;;;;;;;36.77;17.23;;;2.90;88.80;;;;;;4882426;29;20025;-92
2020/12/11 05:52:57;;;;;;;33.20;16.60;;;2.80;89.60;;;;;;4885718;29;20036;-90
2020/12/11 05:55:48;;;;;;;35.07;18.47;;;2.90;89.70;;;;;;4881895;29;20036;-91
2020/12/11 05:58:17;;;;;;;32.73;16.50;;;2.80;89.30;;;;;;4883834;29;20124;-90
2020/12/11 06:00:42;;;;;;;36.83;19.30;;;2.80;89.90;;;;;;4873954;29;20060;-89
2020/12/11 06:03:09;;;;;;;32.57;16.77;;;2.80;89.30;;;;;;4877498;29;20123;-88
2020/12/11 06:05:39;;;;;;;35.33;18.33;;;2.90;89.80;;;;;;4872008;29;20040;-90
2020/12/11 06:08:44;;;;;;;33.07;17.47;;;2.90;89.70;;;;;;4874731;29;20033;-90
2020/12/11 06:11:28;;;;;;;34.37;18.33;;;2.90;89.50;;;;;;4877315;29;20041;-90
2020/12/11 06:14:02;;;;;;;33.93;17.73;;;2.90;89.50;;;;;;4875417;29;20044;-91
2020/12/11 06:26:15;;;;;;;31.07;15.57;;;2.90;89.60;;;;;;4881608;23;20067;-85
2020/12/11 06:28:50;;;;;;;31.50;16.53;;;2.90;89.70;;;;;;4875851;29;20037;-86
2020/12/11 06:31:22;;;;;;;32.70;17.80;;;3.00;89.50;;;;;;4857114;29;20036;-86
2020/12/11 06:33:53;;;;;;;31.57;16.40;;;3.00;89.50;;;;;;4857547;29;20037;-84
2020/12/11 06:36:19;;;;;;;32.87;17.67;;;3.00;89.50;;;;;;4856015;29;20033;-85
2020/12/11 06:38:48;;;;;;;32.13;17.53;;;3.00;88.90;;;;;;4856929;29;20037;-84
2020/12/11 06:41:35;;;;;;;34.97;19.38;;;3.00;89.20;;;;;;4857030;29;20041;-85
2020/12/11 06:44:10;;;;;;;30.47;16.87;;;3.00;89.20;;;;;;4856475;29;20487;-87
2020/12/11 06:46:36;;;;;;;33.13;17.37;;;3.00;89.00;;;;;;4853414;29;20045;-86
2020/12/11 06:49:07;;;;;;;30.93;16.73;;;3.00;89.30;;;;;;4864721;29;20033;-86
2020/12/11 06:51:34;;;;;;;32.00;17.93;;;3.00;89.30;;;;;;4868423;29;20068;-87
2020/12/11 06:54:00;;;;;;;32.97;18.10;;;3.00;89.30;;;;;;4866149;29;20086;-86
2020/12/11 06:56:46;;;;;;;32.23;17.80;;;3.00;89.10;;;;;;4885281;29;20033;-87
2020/12/11 06:59:18;;;;;;;32.70;17.10;;;3.00;89.00;;;;;;4877191;29;20038;-87
2020/12/11 07:01:43;;;;;;;34.90;17.70;;;3.00;89.00;;;;;;4848506;29;20029;-86
2020/12/11 07:04:09;;;;;;;32.40;17.60;;;3.00;89.30;;;;;;4865069;29;20082;-86
2020/12/11 07:06:34;;;;;;;33.93;17.80;;;3.00;89.00;;;;;;4864761;29;20030;-87
2020/12/11 07:09:04;;;;;;;30.63;16.93;;;3.00;89.30;;;;;;4855043;29;20044;-87
2020/12/11 07:11:30;;;;;;;;;;;3.00;89.30;;;;;;4870939;29;20131;-87
2020/12/11 07:13:55;;;;;;;30.83;16.47;;;3.00;89.60;;;;;;4863903;29;19907;-89
2020/12/11 07:16:21;;;;;;;31.43;17.00;;;3.00;89.00;;;;;;4865187;29;20033;-90
2020/12/11 07:18:47;;;;;;;33.83;19.03;;;3.10;88.90;;;;;;4880613;29;20420;-91
2020/12/11 07:21:14;;;;;;;33.90;18.27;;;3.00;88.10;;;;;;4850268;29;20112;-85
2020/12/11 07:23:39;;;;;;;35.17;18.60;;;3.10;88.80;;;;;;4865277;29;20406;-86
2020/12/11 07:26:05;;;;;;;32.27;17.30;;;3.00;88.70;;;;;;4847758;29;20164;-90
2020/12/11 07:28:31;;;;;;;32.57;17.40;;;3.10;88.60;;;;;;4847636;29;20162;-83
2020/12/11 07:30:56;;;;;;;31.60;18.07;;;3.10;88.40;;;;;;4881913;29;20021;-90
2020/12/11 07:33:29;;;;;;;33.27;19.00;;;3.00;87.40;;;;;;4885151;29;20018;-87
2020/12/11 07:35:54;;;;;;;33.50;16.63;;;3.00;88.30;;;;;;4901793;29;20041;-89
2020/12/11 07:38:26;;;;;;;38.67;17.93;;;3.00;88.60;;;;;;4882871;29;20478;-82
2020/12/11 07:40:54;;;;;;;32.37;18.00;;;3.00;88.40;;;;;;4886270;29;20044;-82
2020/12/11 07:43:22;;;;;;;34.00;19.83;;;3.00;88.30;;;;;;4884350;29;20032;-80
2020/12/11 07:45:47;;;;;;;37.13;19.87;;;3.00;88.60;;;;;;4884909;29;20033;-81
2020/12/11 07:48:14;;;;;;;34.40;18.17;;;3.10;88.50;;;;;;4880911;29;20068;-91
2020/12/11 07:50:40;;;;;;;35.37;19.37;;;3.00;88.40;;;;;;4881786;29;20017;-89
2020/12/11 07:53:10;;;;;;;35.50;18.87;;;3.10;88.40;;;;;;4864621;29;20025;-89
2020/12/11 07:55:36;;;;;;;34.03;17.60;;;3.00;87.80;;;;;;4865669;29;20035;-86
2020/12/11 07:58:03;;;;;;;31.93;18.30;;;3.00;88.50;;;;;;4864114;29;20394;-86
2020/12/11 08:00:30;;;;;;;34.50;17.87;;;3.00;88.00;;;;;;4864067;29;20406;-87
2020/12/11 08:03:08;;;;;;;32.40;17.97;;;3.00;88.60;;;;;;4866027;29;20072;-90
2020/12/11 08:05:36;;;;;;;33.50;18.13;;;3.00;88.40;;;;;;4868565;29;20123;-88
2020/12/11 08:08:02;;;;;;;33.60;16.27;;;3.00;88.30;;;;;;4867808;29;20041;-87
2020/12/11 08:10:39;;;;;;;34.40;17.43;;;3.10;88.30;;;;;;4873744;29;20403;-86
2020/12/11 08:13:24;;;;;;;39.47;18.77;;;3.10;88.00;;;;;;4849653;29;20468;-86
2020/12/11 08:15:49;;;;;;;34.50;16.90;;;3.00;87.80;;;;;;4883475;29;20025;-87
2020/12/11 08:18:21;;;;;;;31.90;17.07;;;3.10;88.10;;;;;;4864637;29;20029;-89
2020/12/11 08:20:55;;;;;;;30.13;17.37;;;3.10;87.90;;;;;;4884950;29;20033;-87
2020/12/11 08:23:44;;;;;;;32.73;17.87;;;3.10;87.70;;;;;;4869575;29;20524;-91
2020/12/11 08:26:11;;;;;;;31.40;16.20;;;3.10;87.80;;;;;;4861210;29;20544;-88
2020/12/11 08:28:37;;;;;;;31.97;17.07;;;3.10;87.60;;;;;;4849338;29;20066;-89
2020/12/11 08:31:12;;;;;;;31.97;16.33;;;3.10;87.50;;;;;;4862319;29;20058;-89
2020/12/11 08:33:37;;;;;;;29.40;16.10;;;3.10;87.50;;;;;;4867039;29;20050;-88
2020/12/11 08:36:03;;;;;;;28.90;16.33;;;3.20;87.50;;;;;;4884505;29;20025;-89
2020/12/11 08:38:28;;;;;;;27.63;15.57;;;3.10;87.00;;;;;;4848574;29;20056;-89
2020/12/11 08:40:54;;;;;;;30.50;16.03;;;3.10;87.50;;;;;;4853222;29;20041;-90
2020/12/11 08:43:35;;;;;;;28.97;16.13;;;3.10;87.20;;;;;;4859264;29;20038;-89
2020/12/11 08:49:04;;;;;;;27.30;15.37;;;3.20;87.50;;;;;;4884953;29;20448;-69
2020/12/11 08:51:30;;;;;;;28.87;15.63;;;3.20;87.40;;;;;;4877508;29;20500;-70
2020/12/11 08:53:57;;;;;;;28.27;15.50;;;3.20;87.60;;;;;;4880176;29;20107;-67
2020/12/11 09:10:07;;;;;;;26.53;15.30;;;3.30;86.70;;;;;;4863597;29;20132;-81
2020/12/11 09:12:56;;;;;;;29.77;15.73;;;3.30;85.70;;;;;;4897115;29;20017;-88
2020/12/11 09:15:22;;;;;;;27.43;14.93;;;3.40;86.90;;;;;;4886689;29;20096;-87
2020/12/11 09:17:48;;;;;;;26.67;14.80;;;3.40;85.70;;;;;;4879449;29;20077;-87
2020/12/11 09:20:14;;;;;;;28.80;14.70;;;3.40;87.00;;;;;;4866730;29;20009;-93
2020/12/11 09:22:40;;;;;;;27.83;15.20;;;3.40;86.10;;;;;;4878562;29;20063;-89
2020/12/11 09:25:06;;;;;;;27.53;14.37;;;3.40;86.30;;;;;;4885038;29;20447;-89
2020/12/11 09:27:34;;;;;;;27.93;15.60;;;3.40;86.10;;;;;;4897474;29;20414;-88
2020/12/11 09:30:13;;;;;;;28.80;16.03;;;3.40;85.40;;;;;;4901851;29;20062;-90
2020/12/11 09:35:24;;;;;;;26.20;15.23;;;3.50;86.10;;;;;;4923126;29;19899;-91
2020/12/11 09:37:51;;;;;;;25.67;13.87;;;3.50;85.90;;;;;;4905664;29;20029;-93
2020/12/11 09:40:18;;;;;;;27.90;15.13;;;3.50;85.70;;;;;;4903391;29;20041;-92
2020/12/11 09:45:39;;;;;;;26.73;14.97;;;3.60;85.40;;;;;;4918757;29;20032;-94
2020/12/11 09:48:14;;;;;;;28.47;15.03;;;3.60;84.50;;;;;;4899909;29;20044;-92
2020/12/11 09:50:58;;;;;;;26.63;14.40;;;3.60;85.40;;;;;;4902024;29;20121;-93
2020/12/11 09:53:43;;;;;;;29.03;15.53;;;3.60;84.80;;;;;;4900407;29;20056;-92
2020/12/11 09:56:09;;;;;;;27.73;15.00;;;3.60;84.60;;;;;;4899113;29;20427;-92
2020/12/11 09:58:38;;;;;;;29.73;15.60;;;3.70;85.30;;;;;;4895536;29;20028;-91
2020/12/11 10:01:06;;;;;;;26.85;14.45;;;3.70;85.10;;;;;;4904410;29;20458;-84
2020/12/11 10:03:36;;;;;;;27.53;14.77;;;3.80;84.70;;;;;;4886445;29;20068;-84
2020/12/11 10:06:06;;;;;;;26.90;15.13;;;3.80;84.90;;;;;;4888660;29;20196;-82
2020/12/11 10:08:32;;;;;;;28.03;13.77;;;3.90;84.60;;;;;;4905916;29;20064;-82
2020/12/11 10:18:45;;;;;;;27.00;14.13;;;4.10;83.90;;;;;;4919023;29;20509;-94
2020/12/11 10:21:24;;;;;;;27.80;14.77;;;4.10;83.80;;;;;;4901249;29;20049;-92
2020/12/11 10:23:53;;;;;;;26.00;14.45;;;4.20;83.00;;;;;;4901278;29;20013;-93
2020/12/11 10:26:19;;;;;;;25.80;13.63;;;4.30;83.80;;;;;;4904465;29;20063;-92
2020/12/11 10:28:45;;;;;;;25.63;14.60;;;4.30;83.50;;;;;;4905572;29;20095;-92
2020/12/11 10:32:02;;;;;;;30.80;15.30;;;4.40;83.60;;;;;;4907638;23;20068;-93
2020/12/11 10:34:28;;;;;;;26.47;14.03;;;4.40;83.70;;;;;;4808029;29;20045;-91
2020/12/11 10:36:57;;;;;;;26.70;14.23;;;4.40;83.40;;;;;;4808564;29;20031;-91
2020/12/11 10:39:22;;;;;;;26.63;14.95;;;4.40;83.00;;;;;;4778248;29;20041;-93
2020/12/11 10:41:48;;;;;;;28.23;14.50;;;4.40;82.80;;;;;;4808328;29;20480;-91
2020/12/11 10:44:14;;;;;;;27.87;14.03;;;4.40;82.90;;;;;;4796860;29;20030;-89
2020/12/11 10:46:39;;;;;;;28.60;13.97;;;4.40;83.00;;;;;;4820027;29;20046;-90
2020/12/11 10:49:05;;;;;;;26.80;13.60;;;4.50;83.70;;;;;;4795060;29;20397;-91
2020/12/11 10:51:31;;;;;;;26.60;14.03;;;4.50;82.60;;;;;;4791298;29;20092;-89
2020/12/11 10:53:57;;;;;;;28.20;14.90;;;4.50;83.70;;;;;;4796295;29;20015;-91
2020/12/11 10:56:23;;;;;;;28.17;14.77;;;4.50;83.70;;;;;;4829975;29;20049;-91
2020/12/11 10:58:49;;;;;;;27.63;13.67;;;4.50;82.90;;;;;;4823901;29;20056;-91
2020/12/11 11:01:15;;;;;;;26.60;13.93;;;4.60;83.20;;;;;;4810892;29;20038;-91
2020/12/11 11:03:41;;;;;;;25.03;13.87;;;4.60;83.20;;;;;;4797224;29;20026;-92
2020/12/11 11:11:26;;;;;;;26.07;13.73;;;4.60;83.70;;;;;;4824702;29;20167;-88
2020/12/11 11:16:26;;;;;;;25.43;14.07;;;4.70;83.40;;;;;;4831415;29;20099;-92
2020/12/11 11:22:38;;;;;;;27.07;13.77;;;4.70;83.00;;;;;;4830133;29;20031;-91
2020/12/11 11:28:04;;;;;;;27.07;14.60;;;4.70;83.20;;;;;;4810326;29;20039;-91
2020/12/11 11:30:32;;;;;;;27.17;13.33;;;4.70;83.20;;;;;;4817954;29;20207;-89
2020/12/11 11:33:02;;;;;;;28.63;14.98;;;4.70;83.50;;;;;;4818653;29;20062;-90
2020/12/11 11:35:30;;;;;;;26.17;13.75;;;4.70;82.90;;;;;;4816829;29;20035;-91
2020/12/11 11:37:56;;;;;;;28.00;15.57;;;4.70;83.60;;;;;;4824149;29;20034;-90
2020/12/11 11:40:23;;;;;;;25.83;13.33;;;4.70;83.20;;;;;;4831473;29;20046;-91
2020/12/11 11:42:49;;;;;;;26.77;14.47;;;4.70;83.60;;;;;;4834325;29;20078;-88
2020/12/11 11:45:26;;;;;;;28.03;14.90;;;4.70;83.10;;;;;;4836073;29;20030;-90
2020/12/11 11:47:55;;;;;;;26.90;13.43;;;4.70;83.70;;;;;;4820949;29;20038;-91
2020/12/11 11:50:40;;;;;;;24.92;13.32;;;4.80;83.50;;;;;;4815584;29;20034;-90
2020/12/11 11:53:17;;;;;;;25.80;12.67;;;4.80;83.60;;;;;;4818252;29;20069;-89
2020/12/11 11:55:42;;;;;;;26.73;13.23;;;4.80;82.60;;;;;;4832306;29;20112;-90
2020/12/11 11:58:09;;;;;;;26.77;13.50;;;4.80;82.80;;;;;;4832034;29;20065;-91
2020/12/11 12:00:35;;;;;;;26.97;14.30;;;4.80;83.30;;;;;;4830896;29;20037;-91
2020/12/11 12:03:01;;;;;;;25.87;13.73;;;4.80;83.00;;;;;;4831253;29;20033;-91
2020/12/11 12:05:27;;;;;;;25.37;13.23;;;4.80;83.40;;;;;;4830973;29;20509;-92
2020/12/11 12:07:56;;;;;;;26.03;13.87;;;4.80;82.90;;;;;;4831528;29;20030;-92
2020/12/11 12:10:24;;;;;;;24.60;12.43;;;4.80;83.20;;;;;;4831591;29;20032;-92
2020/12/11 12:12:50;;;;;;;24.20;12.33;;;4.80;83.10;;;;;;4834196;29;20118;-92
2020/12/11 12:15:19;;;;;;;26.80;13.97;;;4.90;82.70;;;;;;4838896;29;20026;-90
2020/12/11 12:17:53;;;;;;;34.60;13.80;;;4.80;82.80;;;;;;4833460;29;20083;-92
2020/12/11 12:20:29;;;;;;;28.47;14.03;;;4.90;83.40;;;;;;4834166;29;20098;-92
2020/12/11 12:30:42;;;;;;;26.60;13.60;;;4.90;82.80;;;;;;4862725;29;20033;-93
2020/12/11 12:36:10;;;;;;;26.57;13.57;;;5.00;83.20;;;;;;4858690;29;20051;-92
2020/12/11 12:43:56;;;;;;;24.63;13.50;;;5.00;83.00;;;;;;4856432;29;20070;-93
2020/12/11 12:46:21;;;;;;;26.53;13.43;;;5.00;82.90;;;;;;4847568;29;20037;-93
2020/12/11 12:48:47;;;;;;;29.17;14.10;;;5.00;82.80;;;;;;4836989;29;20038;-88
2020/12/11 12:51:13;;;;;;;26.07;14.07;;;5.00;82.90;;;;;;4850089;29;20036;-87
2020/12/11 12:53:38;;;;;;;24.93;13.07;;;5.00;82.60;;;;;;4832634;29;20125;-87
2020/12/11 12:59:15;;;;;;;25.20;13.77;;;5.00;82.40;;;;;;4855342;29;20044;-91
2020/12/11 13:04:19;;;;;;;26.00;14.23;;;5.10;82.60;;;;;;4890022;29;20037;-86
2020/12/11 13:06:46;;;;;;;25.70;13.77;;;5.10;82.80;;;;;;4873391;29;20112;-91
2020/12/11 13:09:12;;;;;;;25.47;13.20;;;5.10;82.60;;;;;;4871752;29;20120;-91
2020/12/11 13:11:38;;;;;;;26.50;13.13;;;5.10;82.50;;;;;;4873420;29;20043;-91
2020/12/11 13:14:03;;;;;;;25.23;13.73;;;5.20;83.00;;;;;;4875068;29;20025;-91
2020/12/11 13:16:29;;;;;;;27.80;13.37;;;5.10;82.80;;;;;;4875030;29;20471;-92
2020/12/11 13:18:55;;;;;;;26.00;13.33;;;5.20;83.60;;;;;;4869036;29;20475;-88
2020/12/11 13:21:26;;;;;;;25.03;12.83;;;5.20;82.70;;;;;;4890810;29;20037;-91
2020/12/11 13:29:08;;;;;;;27.43;13.67;;;5.20;82.50;;;;;;4885245;29;20105;-91
2020/12/11 13:31:34;;;;;;;25.93;12.37;;;5.20;82.60;;;;;;4869226;29;20036;-91
2020/12/11 13:34:00;;;;;;;25.37;13.53;;;5.20;82.70;;;;;;4871958;29;20037;-91
2020/12/11 13:36:26;;;;;;;26.33;13.27;;;5.20;82.80;;;;;;4869201;29;20037;-91
2020/12/11 13:38:52;;;;;;;26.80;13.83;;;5.20;81.60;;;;;;4871489;29;20017;-91
2020/12/11 13:41:17;;;;;;;28.83;13.53;;;5.20;82.40;;;;;;4870838;29;20037;-91
2020/12/11 13:43:43;;;;;;;25.67;13.37;;;5.20;82.10;;;;;;4876987;29;20016;-90
2020/12/11 13:46:09;;;;;;;27.63;14.10;;;5.20;82.00;;;;;;4888708;29;20045;-89
2020/12/11 13:48:34;;;;;;;27.97;13.67;;;5.10;81.80;;;;;;4889094;29;20028;-93
2020/12/11 13:51:00;;;;;;;28.70;14.13;;;5.10;82.50;;;;;;4889280;29;20025;-92
2020/12/11 13:53:26;;;;;;;27.47;13.87;;;5.10;82.40;;;;;;4875756;29;20033;-91
2020/12/11 13:55:51;;;;;;;27.47;14.13;;;5.10;82.50;;;;;;4869091;29;20029;-91
2020/12/11 13:58:17;;;;;;;27.47;13.70;;;5.10;82.70;;;;;;4866897;29;20048;-92
2020/12/11 14:00:43;;;;;;;27.33;14.53;;;5.10;83.10;;;;;;4868142;29;20498;-91
2020/12/11 14:03:09;;;;;;;27.57;14.53;;;5.10;83.10;;;;;;4867138;29;20041;-91
2020/12/11 14:05:36;;;;;;;30.60;15.63;;;5.10;82.40;;;;;;4868123;29;20033;-91
2020/12/11 14:08:01;;;;;;;28.97;14.90;;;5.10;82.10;;;;;;4867815;29;20037;-91
2020/12/11 14:10:27;;;;;;;25.97;13.67;;;5.10;81.00;;;;;;4866392;29;20039;-90
2020/12/11 14:12:53;;;;;;;26.30;13.40;;;5.10;83.00;;;;;;4864645;29;20040;-89
2020/12/11 14:15:19;;;;;;;27.53;14.97;;;5.10;82.30;;;;;;4864681;29;20123;-90
2020/12/11 14:23:00;;;;;;;25.20;12.43;;;5.20;82.60;;;;;;4884148;29;20032;-81
2020/12/11 14:25:25;;;;;;;26.63;12.50;;;5.10;82.70;;;;;;4865971;29;20021;-91
2020/12/11 14:27:51;;;;;;;27.37;13.57;;;5.20;82.90;;;;;;4866110;29;20099;-89
2020/12/11 14:30:17;;;;;;;26.30;13.57;;;5.20;82.60;;;;;;4882891;29;20032;-86